Tiempo atmosférico en la estación meteorológica de Murcia, Murcia (61 m.)



Fecha
DESCASC
Temp. máxima en grados centígrados (hora)
DESCASC
Temp. mínima en grados centígrados (hora)
DESCASC
Temp. media en grados centígrados
DESCASC
Racha de viento máxima en m/sg (hora)
DESCASC
Velocidad máxima media en intervalos de 10 minutos(hora)
DESCASC
Precipitaciones diarias en mm
DESCASC
Precipitaciones de 00:00 a 06:00 en mm
DESCASC
Precipitaciones de 06:00 a 12:00 en mm
DESCASC
Precipitaciones de 12:00 a 18:00 en mm
DESCASC
Precipitaciones de 18:00 a 24:00 en mm
DESCASC
23-06-2019 31.4 (15:50) 18.4 (06:30) 24.9 8.61 (16:30) 5.83 (18:20) 0 0 0 0 0
22-06-2019 30.3 (13:50) 19.5 (06:30) 24.9 11.94 (17:10) 6.11 (14:50) 0 0 0 0 0
21-06-2019 32.4 (15:40) 20.4 (07:30) 26.4 8.33 (16:00) 4.72 (17:00) 0 0 0 0 0
20-06-2019 33 (12:50) 19.1 (00:00) 26.1 11.39 (14:50) 7.78 (14:50) 0 0 0 0 0
19-06-2019 35.3 (15:30) 18.9 (00:00) 27.1 8.06 (16:10) 4.44 (16:00) 0 0 0 0 0
18-06-2019 32.7 (17:30) 16.2 (00:00) 24.5 8.06 (20:50) 5.56 (20:50) 0 0 0 0 0
17-06-2019 33 (15:20) 16.1 (00:00) 24.6 8.06 (15:10) 4.17 (16:20) 0 0 0 0 0
16-06-2019 26.8 (14:30) 16.7 (00:00) 21.8 8.89 (15:00) 5.28 (15:00) 0 0 0 0 0
15-06-2019 32.2 (16:20) 20.8 (00:00) 26.5 12.22 (03:50) 7.5 (03:00) 0 0 0 0 0
14-06-2019 31.4 (17:30) 19.9 (00:00) 25.6 8.33 (03:00) 5.28 (03:00) 1.2 0 1.2 0 0
13-06-2019 26.8 (14:40) 19.4 (00:00) 23.1 11.39 (14:20) 6.94 (14:40) 0 0 0 0 0
12-06-2019 25.5 (14:10) 15.9 (00:00) 20.7 10.83 (17:10) 6.39 (17:00) 0 0 0 0 0
11-06-2019 30.3 (14:10) 16.6 (00:00) 23.4 13.06 (17:40) 8.33 (18:20) 0 0 0 0 0
10-06-2019 32.6 (15:30) 17.1 (00:00) 24.8 10 (16:30) 5.83 (21:40) 0 0 0 0 0
09-06-2019 31.8 (17:10) 19.2 (00:00) 25.5 8.06 (18:20) 4.44 (18:20) 0 0 0 0 0
08-06-2019 27.2 (13:50) 17 (00:00) 22.1 11.94 (16:10) 8.06 (14:20) 0 0 0 0 0
07-06-2019 31.5 (16:00) 16.5 (00:00) 24 8.33 (17:10) 5.28 (23:20) 0 0 0 0 0
06-06-2019 28.5 (13:30) 15.2 (00:00) 21.8 11.11 (14:50) 6.67 (15:30) 0 0 0 0 0
05-06-2019 30 (17:30) 17.1 (00:00) 23.6 13.33 (15:00) 8.33 (15:00) 0 0 0 0 0
04-06-2019 33.6 (17:00) 15.8 (00:00) 24.7 8.33 (14:10) 3.89 (17:10) 0 0 0 0 0
03-06-2019 32.4 (16:10) 15.1 (00:00) 23.8 7.22 (16:30) 4.44 (21:00) 0 0 0 0 0
02-06-2019 30.9 (15:50) 14.4 (00:00) 22.6 8.61 (16:40) 5.28 (17:20) 0 0 0 0 0
01-06-2019 28.7 (16:30) 14.4 (00:00) 21.6 9.17 (17:10) 5.56 (15:50) 0 0 0 0 0
31-05-2019 27.3 (14:50) 14 (00:00) 20.6 9.44 (16:30) 5.83 (16:00) 0 0 0 0 0
30-05-2019 26.9 (15:30) 14.4 (00:00) 20.6 8.33 (16:50) 3.89 (14:20) 0 0 0 0 0
29-05-2019 25.3 (14:50) 16 (00:00) 20.6 10.28 (16:00) 6.94 (15:40) 0 0 0 0 0
28-05-2019 28 (16:30) 18.7 (00:00) 23.4 10.28 (17:20) 6.94 (17:20) 0 0 0 0 0

Gráficas

Temp. máximas Temp. mínimas Temp. medias Precipitaciones Rachas de viento máximas Velocidades máximas media en intervalos de 10 minutos

Datos horarios

Fecha y hora oficial Temperatura (ºC) Velocidad del viento (km/h) Dirección del viento Racha (km/h) Dirección de racha Precipitación (mm) Presión (hPa) Tendencia (hPa) Humedad (%)
2019-06-26 23:00:00 26.7 7 Este 20 Este 0 1010 2 64
2019-06-26 22:00:00 27.9 10 Sudeste 18 Sudeste 0 1009.2 1.6 60
2019-06-26 21:00:00 29.5 9 Nordeste 22 Este 0 1008.4 1.1 54
2019-06-26 20:00:00 30.8 13 Este 32 Este 0 1008 0.3 46
2019-06-26 19:00:00 31.2 17 Este 34 Nordeste 0 1007.6 -0.6 46
2019-06-26 18:00:00 33.8 16 Este 27 Este 0 1007.3 -1.5 38
2019-06-26 17:00:00 33.5 14 Este 31 Este 0 1007.7 -1.6 43
2019-06-26 16:00:00 33.8 15 Este 25 Sudeste 0 1008.2 -1.9 46
2019-06-26 15:00:00 32.8 5 Nordeste 22 Nordeste 0 1008.8 -1.6 44
2019-06-26 14:00:00 31.2 5 Sudoeste 13 Sudoeste 0 1009.3 -1.3 48
2019-06-26 13:00:00 29.8 6 Oeste 12 Sudoeste 0 1010.1 -0.7 51
2019-06-26 12:00:00 28.7 6 Sudoeste 12 Sudeste 0 1010.4 -0.1 55
2019-06-26 11:00:00 26.7 4 Oeste 8 Sur 0 1010.6 0.4 64
2019-06-26 10:00:00 25 5 Oeste 10 Noroeste 0 1010.8 1 70
2019-06-26 09:00:00 24.2 6 Noroeste 12 Noroeste 0 1010.5 1.1 72
2019-06-26 08:00:00 23 5 Oeste 8 Oeste 0 1010.2 1.4 77
2019-06-26 07:00:00 22.3 2 Oeste 10 Sudoeste 0 1009.8 1.5 80
2019-06-26 06:00:00 22 4 Sudoeste 9 Oeste 0 1009.4 1 81
2019-06-26 05:00:00 21.4 3 Oeste 7 Sudeste 0 1008.8 0 84
2019-06-26 04:00:00 22.1 3 Sudoeste 12 Sur 0 1008.3 -1.3 81
2019-06-26 03:00:00 22.5 5 Sur 9 Oeste 0 1008.4 -1.4 78
2019-06-26 02:00:00 22.6 4 Oeste 10 Oeste 0 1008.8 -1 78
2019-06-26 01:00:00 22.6 3 Norte 11 Nordeste 0 1009.6 0.6 80
2019-06-26 00:00:00 23.1 9 Este 18 Nordeste 0 1009.8 1.9 78
2019-06-25 23:00:00 23.6 14 Nordeste 24 Nordeste 0 1009.8 2.7 75
2019-06-25 22:00:00 24.5 17 Este 28 Este 0 1009 2.1 70
2019-06-25 21:00:00 26.1 18 Este 29 Este 0 1007.9 0.8 65
2019-06-25 20:00:00 28.1 21 Nordeste 31 Este 0 1007.1 -0.1 56
2019-06-25 19:00:00 29.6 19 Este 35 Nordeste 0 1006.9 -0.4 51
2019-06-25 18:00:00 30.8 18 Nordeste 36 Este 0 1007.1 -0.2 49
2019-06-25 17:00:00 31.7 14 Sudeste 29 Este 0 1007.2 -0.5 48
2019-06-25 16:00:00 32.3 17 Este 28 Este 0 1007.3 -0.8 47
2019-06-25 15:00:00 33.1 13 Sudeste 23 Nordeste 0 1007.3 -1.2 44
2019-06-25 14:00:00 32 12 Nordeste 19 Nordeste 0 1007.7 -1.1 43
2019-06-25 13:00:00 30.7 5 Sur 18 Sudeste 0 1008.1 -0.9 44
2019-06-25 12:00:00 28.9 5 Oeste 11 Oeste 0 1008.5 -0.5 48
2019-06-25 11:00:00 27.5 3 Oeste 8 Sudeste 0 1008.8 0.3 51
2019-06-25 10:00:00 25.9 6 Sur 12 Sur 0 1009 1.1 56
2019-06-25 09:00:00 23.9 6 Nordeste 11 Norte 0 1009 1.9 67
2019-06-25 08:00:00 21.6 4 Este 7 Sudeste 0 1008.5 1.4 75
2019-06-25 07:00:00 20.7 4 Noroeste 11 Sudoeste 0 1007.9 0.6 78
2019-06-25 06:00:00 21.1 5 Sudoeste 9 Sudoeste 0 1007.1 -0.3 79
2019-06-25 05:00:00 21.2 3 Sur 5 Sur 0 1007.1 -0.6 82
2019-06-25 04:00:00 21.6 3 Oeste 6 Oeste 0 1007.3 -0.7 79
2019-06-25 03:00:00 21.8 4 Noroeste 10 Nordeste 0 1007.4 -0.5 78
2019-06-25 02:00:00 22.2 7 Nordeste 16 Nordeste 0 1007.7 0.4 78
2019-06-25 01:00:00 22.8 10 Nordeste 21 Nordeste 0 1008 1.9 77
2019-06-25 00:00:00 23.6 12 Nordeste 19 Nordeste 0 1007.9 2.6 69
2019-06-24 23:00:00 25 11 Nordeste 19 Nordeste 0 1007.3 2.6 53
2019-06-24 22:00:00 26.8 13 Nordeste 18 Nordeste 0 1006.1 1.6 49
2019-06-24 21:00:00 29.1 9 Este 16 Este 0 1005.3 0.8 42
2019-06-24 20:00:00 30.4 10 Este 28 Nordeste 0 1004.7 0 41
2019-06-24 19:00:00 31.1 16 Este 27 Nordeste 0 1004.5 -0.5 39
2019-06-24 18:00:00 31.8 16 Este 29 Nordeste 0 1004.5 -0.6 38
2019-06-24 17:00:00 32 14 Este 31 Este 0 1004.7 -1.1 37
2019-06-24 16:00:00 32.2 14 Este 26 Este 0 1005 -1.1 35
2019-06-24 15:00:00 32.4 8 Este 20 Este 0 1005.1 -1.4 34
2019-06-24 14:00:00 31.1 9 Sudeste 19 Este 0 1005.8 -1 35
2019-06-24 13:00:00 29.8 8 Nordeste 22 Este 0 1006.1 -1 38
2019-06-24 12:00:00 28.7 7 Nordeste 25 Sudeste 0 1006.5 -0.3 41
2019-06-24 11:00:00 27.7 12 Este 22 Nordeste 0 1006.8 0.4 43
2019-06-24 10:00:00 26.2 6 Nordeste 12 Nordeste 0 1007.1 0.9 45
2019-06-24 09:00:00 24.1 4 Noroeste 9 Noroeste 0 1006.8 0.7 47
2019-06-24 08:00:00 21.3 4 Noroeste 8 Oeste 0 1006.4 0.4 59
2019-06-24 07:00:00 19.5 5 Oeste 7 Oeste 0 1006.2 0.2 61
2019-06-24 06:00:00 19.9 4 Sudoeste 8 Oeste 0 1006.1 -0.5 63
2019-06-24 05:00:00 19.8 3 Sudoeste 7 Noroeste 0 1006 -1 67
2019-06-24 04:00:00 20.4 0 Calma 9 Oeste 0 1006 -1 64
2019-06-24 03:00:00 21.2 6 Oeste 11 Oeste 0 1006.6 -0.8 65
2019-06-24 02:00:00 22 4 Sudoeste 10 Oeste 0 1007 -0.4 68
2019-06-24 01:00:00 22.5 6 Oeste 9 Oeste 0 1007 0 68
2019-06-24 00:00:00 22.6 2 Oeste 9 Nordeste 0 1007.4 1.1 68
2019-06-23 23:00:00 23.2 7 Nordeste 17 Este 0 1007.4 2.1 65
2019-06-23 22:00:00 23.8 12 Nordeste 23 Este 0 1007 2.2 65
2019-06-23 21:00:00 25.4 13 Este 25 Este 0 1006.3 1.5 52
2019-06-23 20:00:00 27.4 15 Este 28 Este 0 1005.3 0 46
2019-06-23 19:00:00 29.5 17 Este 29 Nordeste 0 1004.8 -1 37
2019-06-23 18:00:00 30.7 18 Nordeste 29 Nordeste 0 1004.8 -1.5 31
2019-06-23 17:00:00 30.7 18 Este 31 Sudeste 0 1005.3 -1.3 35
2019-06-23 16:00:00 31.1 17 Este 30 Este 0 1005.8 -1.2 35
2019-06-23 15:00:00 30.2 16 Este 30 Nordeste 0 1006.3 -1.2 38
2019-06-23 14:00:00 30 17 Este 28 Este 0 1006.6 -0.9 42
2019-06-23 13:00:00 29.9 17 Nordeste 27 Nordeste 0 1007 -0.6 43
2019-06-23 12:00:00 28 14 Nordeste 21 Este 0 1007.5 0.4 46
2019-06-23 11:00:00 27 9 Este 16 Este 0 1007.5 0.4 47
2019-06-23 10:00:00 25.1 4 Oeste 8 Noroeste 0 1007.6 0.5 51
2019-06-23 09:00:00 22.4 0 Calma 6 Oeste 0 1007.1 0.2 63
2019-06-23 08:00:00 19.6 5 Oeste 9 Oeste 0 1007.1 0.1 75
2019-06-23 07:00:00 18.6 5 Sudoeste 8 Sudoeste 0 1007.1 -0.1 81
2019-06-23 06:00:00 18.8 4 Oeste 12 Noroeste 0 1006.9 -0.7 80
2019-06-23 05:00:00 19.5 2 Oeste 8 Noroeste 0 1007 -0.9 82
2019-06-23 04:00:00 19.9 4 Noroeste 6 Noroeste 0 1007.2 -1 83
2019-06-23 03:00:00 20.3 2 Noroeste 5 Nordeste 0 1007.6 -0.7 83
2019-06-23 02:00:00 20.6 5 Nordeste 8 Nordeste 0 1007.9 -0.2 82
2019-06-23 01:00:00 21.2 5 Nordeste 8 Nordeste 0 1008.2 0.8 81
2019-06-23 00:00:00 21.9 5 Nordeste 13 Nordeste 0 1008.3 1.2 78
2019-06-22 23:00:00 22.6 9 Nordeste 18 Nordeste 0 1008.1 1.4 76
2019-06-22 22:00:00 23.4 11 Nordeste 26 Este 0 1007.4 0.9 70
2019-06-22 21:00:00 24.7 18 Nordeste 27 Este 0 1007.1 0.3 62
2019-06-22 20:00:00 27 15 Este 33 Este 0 1006.7 -0.3 52
2019-06-22 19:00:00 28.1 21 Nordeste 34 Nordeste 0 1006.5 -1.1 48
2019-06-22 18:00:00 29.3 18 Este 43 Este 0 1006.8 -1.2 44
2019-06-22 17:00:00 30 17 Nordeste 30 Nordeste 0 1007 -1.4 39
2019-06-22 16:00:00 29.5 19 Este 32 Este 0 1007.6 -1.1 43
2019-06-22 15:00:00 29.4 19 Este 30 Este 0 1008 -1 48
2019-06-22 14:00:00 30 18 Este 32 Este 0 1008.4 -0.8 45
2019-06-22 13:00:00 29.4 14 Este 33 Este 0 1008.7 -0.6 45
2019-06-22 12:00:00 28.3 10 Este 21 Este 0 1009 -0.3 47
2019-06-22 11:00:00 26.3 5 Sudoeste 12 Sur 0 1009.2 0.1 57
2019-06-22 10:00:00 24.9 6 Sudeste 11 Sur 0 1009.3 0.5 63
2019-06-22 09:00:00 22.9 4 Sudoeste 7 Sudoeste 0 1009.3 0.6 70
2019-06-22 08:00:00 21.2 3 Sur 4 Sur 0 1009.1 0.6 76
2019-06-22 07:00:00 19.5 0 Calma 4 Norte 0 1008.8 0.2 83
2019-06-22 06:00:00 20.1 0 Calma 5 Sur 0 1008.7 0 78
2019-06-22 05:00:00 20.9 0 Calma 6 Sur 0 1008.5 -0.4 75
2019-06-22 04:00:00 21.3 3 Noroeste 6 Nordeste 0 1008.6 -0.2 74
2019-06-22 03:00:00 21.6 5 Nordeste 10 Nordeste 0 1008.7 0 73
2019-06-22 02:00:00 21.8 6 Nordeste 10 Nordeste 0 1008.9 0.7 72
2019-06-22 01:00:00 22.2 8 Nordeste 14 Nordeste 0 1008.8 1.6 71
2019-06-22 00:00:00 22.5 11 Nordeste 17 Este 0 1008.7 2.1 70
2019-06-21 23:00:00 23 13 Nordeste 21 Nordeste 0 1008.2 2.5 68
2019-06-21 22:00:00 24.2 9 Este 19 Este 0 1007.2 1.8 63
2019-06-21 21:00:00 25.4 13 Este 21 Este 0 1006.6 1.3 61
2019-06-21 20:00:00 27 10 Este 22 Este 0 1005.7 0.7 56
2019-06-21 19:00:00 28.2 14 Este 25 Sudeste 0 1005.4 0.7 53
2019-06-21 18:00:00 30 13 Sudeste 28 Sudeste 0 1005.3 0 47
2019-06-21 17:00:00 30.9 17 Sudeste 29 Sudeste 0 1005 -0.8 44
2019-06-21 16:00:00 32 12 Sudeste 30 Sudeste 0 1004.7 -1.6 42
2019-06-21 15:00:00 31.3 8 Este 20 Nordeste 0 1005.3 -1.5 38
2019-06-21 14:00:00 30.4 7 Este 19 Este 0 1005.8 -1.2 42
2019-06-21 13:00:00 29.2 6 Norte 15 Nordeste 0 1006.3 -0.8 43
2019-06-21 12:00:00 27.3 7 Sudeste 16 Este 0 1006.8 -0.1 52
2019-06-21 11:00:00 25.7 7 Sudeste 13 Sudeste 0 1007 0.4 61
2019-06-21 10:00:00 24.3 8 Este 12 Este 0 1007.1 1.2 66
2019-06-21 09:00:00 22.5 3 Noroeste 8 Oeste 0 1006.9 1.2 72
2019-06-21 08:00:00 20.8 4 Noroeste 5 Noroeste 0 1006.6 0.9 82
2019-06-21 07:00:00 20.6 2 Sudeste 8 Sur 0 1005.9 0.3 82
2019-06-21 06:00:00 21 3 Oeste 6 Norte 0 1005.7 0 79
2019-06-21 05:00:00 20.9 3 Noroeste 10 Nordeste 0 1005.7 0.1 79
2019-06-21 04:00:00 21.4 6 Nordeste 15 Nordeste 0 1005.6 -0.3 76
2019-06-21 03:00:00 21.4 7 Este 15 Este 0 1005.7 0.1 80
2019-06-21 02:00:00 21.3 7 Este 19 Este 0 1005.6 0.6 80
2019-06-21 01:00:00 21.2 11 Este 20 Nordeste 0 1005.9 1.5 84
2019-06-21 00:00:00 21.2 13 Nordeste 21 Nordeste 0 1005.6 1.9 84
2019-06-20 23:00:00 21.7 15 Nordeste 25 Nordeste 0 1005 1.8 81
2019-06-20 22:00:00 22.6 17 Nordeste 30 Este 0 1004.4 1.4 74
2019-06-20 21:00:00 24.4 21 Este 35 Nordeste 0 1003.7 0.5 65
2019-06-20 20:00:00 26.5 24 Nordeste 39 Nordeste 0 1003.2 -0.2 57
2019-06-20 19:00:00 28.1 24 Nordeste 38 Nordeste 0 1003 -0.8 51
2019-06-20 18:00:00 29.2 22 Nordeste 39 Nordeste 0 1003.2 -0.9 45
2019-06-20 17:00:00 29.3 24 Nordeste 40 Nordeste 0 1003.4 -0.8 47
2019-06-20 16:00:00 29.4 23 Este 38 Nordeste 0 1003.8 -0.4 46
2019-06-20 15:00:00 29.8 27 Nordeste 41 Nordeste 0 1004.1 -0.2 44
2019-06-20 14:00:00 31.4 24 Nordeste 37 Nordeste 0 1004.2 -0.2 38
2019-06-20 13:00:00 32.6 14 Este 29 Este 0 1004.2 -0.3 29
2019-06-20 12:00:00 32.1 9 Norte 14 Nordeste 0 1004.3 -0.2 27
2019-06-20 11:00:00 30.1 6 Oeste 17 Noroeste 0 1004.4 0 31
2019-06-20 10:00:00 28.7 5 Oeste 14 Oeste 0 1004.5 0.3 32
2019-06-20 09:00:00 26.3 11 Oeste 17 Oeste 0 1004.5 0.6 34
2019-06-20 08:00:00 23.4 7 Sudoeste 12 Sudoeste 0 1004.4 0.4 40
2019-06-20 07:00:00 20 4 Sudoeste 8 Sudoeste 0 1004.2 -0.2 62
2019-06-20 06:00:00 19.4 5 Sudoeste 8 Sudoeste 0 1003.9 -1.1 65
2019-06-20 05:00:00 20.8 6 Oeste 12 Sudoeste 0 1004 -1.1 66
2019-06-20 04:00:00 21.2 5 Sudoeste 8 Oeste 0 1004.4 -0.8 70
2019-06-20 03:00:00 21.2 3 Sudoeste 9 Sudoeste 0 1005 0.1 69
2019-06-20 02:00:00 22.5 6 Sudoeste 11 Sudoeste 0 1005.1 0.4 65
2019-06-20 01:00:00 22.9 6 Norte 13 Nordeste 0 1005.2 1.6 63
2019-06-20 00:00:00 23.7 9 Nordeste 14 Nordeste 0 1004.9 1.5 66
2019-06-19 23:00:00 25.4 10 Nordeste 20 Nordeste 0 1004.7 1.3 56
2019-06-19 22:00:00 28.7 6 Este 16 Nordeste 0 1003.6 0.3 31
2019-06-19 21:00:00 31.2 10 Nordeste 14 Nordeste 0 1003.4 -0.1 25
2019-06-19 20:00:00 33.1 8 Este 20 Nordeste 0 1003.4 -0.4 21
2019-06-19 19:00:00 34.1 11 Este 24 Sur 0 1003.3 -0.9 21
2019-06-19 18:00:00 34.5 9 Sudeste 27 Sudeste 0 1003.5 -1.1 22
2019-06-19 17:00:00 34.8 14 Sudeste 29 Sudeste 0 1003.8 -1.7 22
2019-06-19 16:00:00 34.9 16 Sudeste 28 Sur 0 1004.2 -1.9 23
2019-06-19 15:00:00 34.7 8 Nordeste 19 Este 0 1004.6 -1.5 23
2019-06-19 14:00:00 33.8 7 Sur 15 Nordeste 0 1005.5 -0.9 24
2019-06-19 13:00:00 32.1 7 Oeste 23 Oeste 0 1006.1 -0.7 27
2019-06-19 12:00:00 31.2 11 Oeste 21 Noroeste 0 1006.1 -0.8 28
2019-06-19 11:00:00 29.6 12 Norte 22 Norte 0 1006.4 -0.3 32
2019-06-19 10:00:00 26 6 Sudoeste 11 Sur 0 1006.8 0.4 46
2019-06-19 09:00:00 22.5 3 Sudoeste 9 Sudoeste 0 1006.9 0.4 61
2019-06-19 08:00:00 20.1 5 Sudoeste 10 Sudoeste 0 1006.7 0.3 68
2019-06-19 07:00:00 19 4 Sudoeste 13 Oeste 0 1006.4 -0.1 75
2019-06-19 06:00:00 19.5 5 Sudoeste 10 Oeste 0 1006.5 -0.2 75
2019-06-19 05:00:00 19.6 5 Oeste 8 Oeste 0 1006.4 -0.6 77
2019-06-19 04:00:00 19.9 5 Oeste 11 Sudoeste 0 1006.5 -0.7 78
2019-06-19 03:00:00 20.2 6 Sudoeste 10 Sudoeste 0 1006.7 -0.6 76
2019-06-19 02:00:00 20.4 4 Este 10 Nordeste 0 1007 0 81
2019-06-19 01:00:00 20.9 7 Nordeste 14 Nordeste 0 1007.2 1 78
2019-06-19 00:00:00 21.8 9 Nordeste 18 Nordeste 0 1007.3 1.7 74
2019-06-18 23:00:00 22.6 13 Nordeste 23 Nordeste 0 1007 1.7 67
2019-06-18 22:00:00 24.2 15 Nordeste 27 Nordeste 0 1006.2 1 58
2019-06-18 21:00:00 26.5 18 Nordeste 29 Nordeste 0 1005.6 0.2 44
2019-06-18 20:00:00 30.2 8 Sudeste 19 Este 0 1005.3 -0.3 27
2019-06-18 19:00:00 31.3 10 Sudeste 23 Sur 0 1005.2 -0.7 22
2019-06-18 18:00:00 32.1 13 Sudeste 26 Sur 0 1005.4 -1.1 25
2019-06-18 17:00:00 32.1 13 Sudeste 25 Sur 0 1005.6 -1.8 24
2019-06-18 16:00:00 31.9 9 Sudeste 27 Este 0 1005.9 -1.8 29
2019-06-18 15:00:00 31.5 12 Este 25 Sudeste 0 1006.5 -1.6 35
2019-06-18 14:00:00 31 9 Sudeste 22 Este 0 1007.4 -0.8 32
2019-06-18 13:00:00 29.9 12 Este 24 Este 0 1007.7 -0.8 36
2019-06-18 12:00:00 28.1 7 Este 15 Nordeste 0 1008.1 -0.5 38
2019-06-18 11:00:00 26.4 7 Este 15 Sudeste 0 1008.2 -0.4 40
2019-06-18 10:00:00 23.3 2 Sudoeste 7 Sur 0 1008.5 0.3 46
2019-06-18 09:00:00 20.6 2 Oeste 8 Oeste 0 1008.6 0.7 52
2019-06-18 08:00:00 18.3 5 Oeste 10 Oeste 0 1008.6 0.8 63
2019-06-18 07:00:00 16.3 3 Sudoeste 5 Oeste 0 1008.2 0.2 75
2019-06-18 06:00:00 16.6 3 Noroeste 7 Oeste 0 1007.9 -0.7 74
2019-06-18 05:00:00 16.5 4 Oeste 6 Noroeste 0 1007.8 -1.1 76
2019-06-18 04:00:00 17.4 0 Calma 6 Oeste 0 1008 -1.1 76
2019-06-18 03:00:00 18.9 3 Oeste 6 Noroeste 0 1008.6 -0.7 72
2019-06-18 02:00:00 19.1 5 Nordeste 10 Nordeste 0 1008.9 -0.1 75
2019-06-18 01:00:00 20.3 8 Nordeste 20 Nordeste 0 1009.1 1 69
2019-06-18 00:00:00 21.3 14 Nordeste 22 Nordeste 0 1009.3 1.7 64
2019-06-17 23:00:00 22.6 15 Nordeste 23 Nordeste 0 1009 1.8 52
2019-06-17 22:00:00 25.2 5 Este 15 Sudeste 0 1008.1 1 42
2019-06-17 21:00:00 27.9 9 Sudeste 22 Sudeste 0 1007.6 0.4 34
2019-06-17 20:00:00 29.4 13 Sudeste 22 Sudeste 0 1007.2 -0.1 29
2019-06-17 19:00:00 31.3 10 Sudeste 24 Sur 0 1007.1 -0.5 21
2019-06-17 18:00:00 32.1 10 Sudeste 24 Sudeste 0 1007.2 -0.9 25
2019-06-17 17:00:00 32.3 12 Sudeste 25 Sudeste 0 1007.3 -1.4 27
2019-06-17 16:00:00 32.4 13 Sudeste 29 Este 0 1007.6 -1.8 25
2019-06-17 15:00:00 32.6 10 Sudeste 23 Sudeste 0 1008.1 -1.9 22
2019-06-17 14:00:00 31.7 9 Este 18 Este 0 1008.7 -1.7 24
2019-06-17 13:00:00 30.3 6 Sudeste 15 Este 0 1009.4 -1.4 28
2019-06-17 12:00:00 28.2 4 Sudeste 9 Sur 0 1010 -0.9 34
2019-06-17 11:00:00 25.6 4 Sur 8 Sudoeste 0 1010.4 -0.4 39
2019-06-17 10:00:00 22.4 4 Sudoeste 13 Noroeste 0 1010.8 0.3 51
2019-06-17 09:00:00 19.6 6 Oeste 12 Oeste 0 1010.9 0.6 58
2019-06-17 08:00:00 16.9 7 Oeste 12 Oeste 0 1010.8 0.4 68
2019-06-17 07:00:00 16.1 5 Oeste 9 Oeste 0 1010.5 -0.2 76
2019-06-17 06:00:00 16.7 4 Sudoeste 13 Oeste 0 1010.3 -0.7 72
2019-06-17 05:00:00 16.7 7 Oeste 10 Oeste 0 1010.4 -0.9 74
2019-06-17 04:00:00 17.6 3 Oeste 9 Noroeste 0 1010.7 -0.9 75
2019-06-17 03:00:00 17 4 Oeste 5 Oeste 0 1011 -0.6 84
2019-06-17 02:00:00 18 3 Noroeste 5 Norte 0 1011.3 -0.1 81
2019-06-17 01:00:00 18.8 3 Norte 6 Norte 0 1011.6 0.4 77
2019-06-17 00:00:00 20 0 Calma 8 Este 0 1011.6 0.6 77
2019-06-16 23:00:00 21 5 Este 10 Este 0 1011.4 0.7 70
2019-06-16 22:00:00 21.5 6 Nordeste 12 Nordeste 0 1011.2 0.2 65
2019-06-16 21:00:00 22.8 6 Nordeste 19 Este 0 1011 0.1 56
2019-06-16 20:00:00 23.5 9 Este 21 Este 0 1010.7 -0.6 60
2019-06-16 19:00:00 24.6 11 Este 27 Este 0 1011 -0.3 55
2019-06-16 18:00:00 25.4 15 Este 29 Este 0 1010.9 -0.4 54
2019-06-16 17:00:00 24.6 16 Este 29 Este 0 1011.3 -0.8 58
2019-06-16 16:00:00 25.2 13 Este 30 Este 0 1011.3 -1 55
2019-06-16 15:00:00 26 19 Nordeste 32 Nordeste 0 1011.3 -1.1 48
2019-06-16 14:00:00 26.5 17 Este 28 Sudeste 0 1012.1 -0.7 50
2019-06-16 13:00:00 26.1 15 Este 28 Este 0 1012.3 -0.5 50
2019-06-16 12:00:00 25.1 9 Este 19 Este 0 1012.4 0 50
2019-06-16 11:00:00 24.2 9 Este 17 Este 0 1012.8 0.9 48
2019-06-16 10:00:00 23.3 6 Este 14 Este 0 1012.8 1.4 40
2019-06-16 09:00:00 21.4 5 Norte 11 Oeste 0 1012.4 1.7 44
2019-06-16 08:00:00 18.8 8 Oeste 12 Oeste 0 1011.9 1.6 50
2019-06-16 07:00:00 16.7 6 Oeste 9 Oeste 0 1011.4 0.6 58
2019-06-16 06:00:00 17.4 3 Sudoeste 8 Oeste 0 1010.7 -0.3 56
2019-06-16 05:00:00 18.5 5 Oeste 8 Oeste 0 1010.3 -1.2 53
2019-06-16 04:00:00 18.4 3 Noroeste 8 Norte 0 1010.8 -0.7 59
2019-06-16 03:00:00 19.3 6 Norte 12 Nordeste 0 1011 -0.3 61
2019-06-16 02:00:00 19.9 7 Nordeste 12 Nordeste 0 1011.5 0.9 56
2019-06-16 01:00:00 20.6 7 Nordeste 13 Nordeste 0 1011.5 2 46
2019-06-16 00:00:00 22 7 Nordeste 13 Nordeste 0 1011.3 2.4 42
2019-06-15 23:00:00 23.3 5 Noroeste 10 Sur 0 1010.6 2.2 33
2019-06-15 22:00:00 25.6 4 Sudeste 11 Sur 0 1009.5 1.7 30
2019-06-15 21:00:00 28.1 6 Sur 19 Sur 0 1008.9 1 27
2019-06-15 20:00:00 29.3 11 Sudeste 20 Sudeste 0 1008.4 0.4 26
2019-06-15 19:00:00 30.2 13 Sudeste 23 Sur 0 1007.8 -0.5 26
2019-06-15 18:00:00 30.4 13 Sudeste 30 Sudeste 0 1007.9 -1.1 26
2019-06-15 17:00:00 31 15 Sudeste 30 Sudeste 0 1008 -1.7 28
2019-06-15 16:00:00 32 9 Sudeste 22 Nordeste 0 1008.3 -2.1 21
2019-06-15 15:00:00 30.9 7 Sudoeste 17 Sur 0 1009 -1.7 21
2019-06-15 14:00:00 29.6 6 Sur 17 Noroeste 0 1009.7 -1.3 22
2019-06-15 13:00:00 27.6 9 Oeste 28 Oeste 0 1010.4 -0.6 24
2019-06-15 12:00:00 26.5 12 Noroeste 24 Noroeste 0 1010.7 0.2 26
2019-06-15 11:00:00 25.5 15 Noroeste 33 Noroeste 0 1011 1.3 28
2019-06-15 10:00:00 23.7 23 Noroeste 37 Noroeste 0 1011 1.9 30
2019-06-15 09:00:00 22.6 21 Noroeste 34 Noroeste 0 1010.5 2.2 32
2019-06-15 08:00:00 21.8 11 Oeste 20 Noroeste 0 1009.7 2 33
2019-06-15 07:00:00 20.8 6 Oeste 19 Oeste 0 1009.1 1.8 36
2019-06-15 06:00:00 21.4 8 Oeste 22 Noroeste 0 1008.3 1.5 36
2019-06-15 05:00:00 22.3 15 Noroeste 33 Noroeste 0 1007.7 1.1 33
2019-06-15 04:00:00 23.1 22 Noroeste 44 Noroeste 0 1007.3 0.6 30
2019-06-15 03:00:00 23.8 27 Noroeste 41 Noroeste 0 1006.8 0.5 28
2019-06-15 02:00:00 24.3 20 Noroeste 34 Noroeste 0 1006.6 1.1 30
2019-06-15 01:00:00 22.6 4 Sudoeste 13 Noroeste 0 1006.7 2 51
2019-06-15 00:00:00 23.8 6 Noroeste 14 Sudoeste 0 1006.3 2.2 47
2019-06-14 23:00:00 25.2 9 Sudoeste 15 Sudoeste 0 1005.5 1.9 42
2019-06-14 22:00:00 26.5 4 Sur 10 Sur 0 1004.7 1.5 40
2019-06-14 21:00:00 28.5 5 Sur 10 Sur 0 1004.1 1 39
2019-06-14 20:00:00 29.8 6 Sudeste 21 Sur 0 1003.6 0.2 34
2019-06-14 19:00:00 30.5 12 Sur 25 Sur 0 1003.2 -0.5 35
2019-06-14 18:00:00 31.2 10 Sudeste 24 Sudeste 0 1003.1 -0.9 34
2019-06-14 17:00:00 31.1 13 Sur 25 Sudeste 0 1003.4 -1.1 34
2019-06-14 16:00:00 30.8 13 Sur 27 Sur 0 1003.7 -1.3 38
2019-06-14 15:00:00 30.4 10 Sudeste 22 Sudeste 0 1004 -1.3 40
2019-06-14 14:00:00 29.7 6 Sudoeste 14 Nordeste 0 1004.5 -0.8 33
2019-06-14 13:00:00 27.6 4 Sur 14 Sur 0 1005 -0.3 44
2019-06-14 12:00:00 25 6 Sur 13 Sudoeste 0 1005.3 0.4 56
2019-06-14 11:00:00 22.9 5 Sudoeste 14 Sudoeste 0 1005.3 1.2 71
2019-06-14 10:00:00 20.4 6 Sudoeste 10 Sur 0 1005.3 1.8 84
2019-06-14 09:00:00 19.9 7 Oeste 20 Oeste 1.2 1004.9 2.1 82
2019-06-14 08:00:00 21.3 8 Oeste 17 Oeste 0 1004.1 1.9 67
2019-06-14 07:00:00 21.4 8 Oeste 19 Sudoeste 0 1003.5 1.4 65
2019-06-14 06:00:00 21.1 4 Sudoeste 22 Sudoeste 0 1002.8 0.3 64
2019-06-14 05:00:00 21.2 5 Sudoeste 12 Oeste 0 1002.2 -0.4 64
2019-06-14 04:00:00 21.2 7 Sur 28 Oeste 0 1002.1 -1.2 63
2019-06-14 03:00:00 21.5 19 Oeste 30 Oeste 0 1002.5 -1.1 62
2019-06-14 02:00:00 20.5 9 Oeste 19 Oeste 0 1002.6 -1.2 60
2019-06-14 01:00:00 20.6 8 Oeste 12 Sudoeste 0 1003.3 0.1 62
2019-06-14 00:00:00 20.7 0 Calma 6 Sudeste 0 1003.6 1.6 62
2019-06-13 23:00:00 21.1 4 Sur 15 Sudeste 0 1003.8 1.8 62
2019-06-13 22:00:00 21.6 8 Sudeste 19 Sudeste 0 1003.2 1.3 61
2019-06-13 21:00:00 22.9 13 Este 27 Este 0 1002 0 53
2019-06-13 20:00:00 24.1 15 Este 30 Este 0 1002 -0.1 49
2019-06-13 19:00:00 24.9 16 Este 35 Este 0 1001.9 -0.6 49
2019-06-13 18:00:00 25.1 20 Este 39 Este 0 1002 -0.8 47
2019-06-13 17:00:00 25.5 20 Este 39 Este 0 1002.1 -1.5 47
2019-06-13 16:00:00 25.9 23 Este 39 Este 0 1002.5 -1.5 45
2019-06-13 15:00:00 26.3 19 Este 41 Este 0 1002.8 -1.8 45
2019-06-13 14:00:00 26.3 22 Este 36 Este 0 1003.6 -1.5 42
2019-06-13 13:00:00 26.1 22 Nordeste 33 Nordeste 0 1004 -1.7 45
2019-06-13 12:00:00 24.8 19 Este 32 Este 0 1004.6 -1 49
2019-06-13 11:00:00 23.6 13 Este 28 Nordeste 0 1005.1 0 58
2019-06-13 10:00:00 22.2 14 Este 32 Nordeste 0 1005.7 0.7 66
2019-06-13 09:00:00 20.4 13 Nordeste 22 Nordeste 0 1005.6 0.8 78
2019-06-13 08:00:00 19.7 10 Nordeste 20 Nordeste 0 1005.1 0.6 83
2019-06-13 07:00:00 19.5 9 Este 17 Este 0 1005 0 85
2019-06-13 06:00:00 19.9 8 Nordeste 15 Nordeste 0 1004.8 -0.3 80
2019-06-13 05:00:00 19.9 7 Nordeste 13 Norte 0 1004.5 -1.7 78
2019-06-13 04:00:00 19.8 9 Nordeste 15 Nordeste 0 1005 -1.4 79
2019-06-13 03:00:00 19.7 10 Nordeste 15 Nordeste 0 1005.1 -1.5 79
2019-06-13 02:00:00 19.7 8 Nordeste 18 Nordeste 0 1006.2 -0.3 80
2019-06-13 01:00:00 19.9 9 Nordeste 17 Nordeste 0 1006.4 0.4 78
2019-06-13 00:00:00 19.6 9 Nordeste 19 Nordeste 0 1006.6 1.2 79
2019-06-12 23:00:00 19.7 12 Nordeste 24 Este 0 1006.5 1.4 76
2019-06-12 22:00:00 20.2 13 Nordeste 29 Este 0 1006 1.1 73
2019-06-12 21:00:00 20.8 15 Este 32 Nordeste 0 1005.4 0.2 69
2019-06-12 20:00:00 22.3 17 Este 33 Este 0 1005.1 -0.2 61
2019-06-12 19:00:00 23.5 21 Este 36 Nordeste 0 1004.9 -0.8 55
2019-06-12 18:00:00 24.4 21 Este 39 Nordeste 0 1005.2 -0.9 49
2019-06-12 17:00:00 25.3 23 Nordeste 38 Nordeste 0 1005.3 -1.3 44
2019-06-12 16:00:00 25.4 19 Nordeste 33 Este 0 1005.7 -1.4 41
2019-06-12 15:00:00 25 15 Este 30 Este 0 1006.1 -1.5 36
2019-06-12 14:00:00 25.4 12 Este 26 Este 0 1006.6 -1.2 34
2019-06-12 13:00:00 24.3 13 Este 24 Nordeste 0 1007.1 -0.8 36
2019-06-12 12:00:00 23.2 13 Este 24 Este 0 1007.6 -0.4 37
2019-06-12 11:00:00 22.1 13 Nordeste 26 Este 0 1007.8 0.1 41
2019-06-12 10:00:00 21.1 11 Este 21 Este 0 1007.9 0.5 48
2019-06-12 09:00:00 20.2 8 Este 15 Este 0 1008 1 53
2019-06-12 08:00:00 17.8 4 Noroeste 7 Noroeste 0 1007.7 1.2 68
2019-06-12 07:00:00 16.3 3 Noroeste 6 Nordeste 0 1007.4 1 75
2019-06-12 06:00:00 16.5 4 Nordeste 10 Nordeste 0 1007 0.8 75
2019-06-12 05:00:00 17.3 7 Nordeste 14 Este 0 1006.5 0 70
2019-06-12 04:00:00 17.7 8 Este 16 Este 0 1006.4 -0.3 70
2019-06-12 03:00:00 17.7 7 Este 18 Este 0 1006.2 -0.1 71
2019-06-12 02:00:00 17.8 7 Nordeste 13 Nordeste 0 1006.5 0.6 68
2019-06-12 01:00:00 19 9 Este 16 Este 0 1006.7 1.6 68
2019-06-12 00:00:00 19 6 Nordeste 14 Este 0 1006.3 2.1 70
2019-06-11 23:00:00 19.3 10 Este 27 Este 0 1005.9 2.4 69
2019-06-11 22:00:00 19.4 17 Nordeste 33 Este 0 1005.1 3.5 69
2019-06-11 21:00:00 20.5 17 Este 46 Este 0 1004.2 3.4 69
2019-06-11 20:00:00 22 24 Nordeste 46 Este 0 1003.5 3.2 68
2019-06-11 19:00:00 24.3 26 Este 46 Nordeste 0 1001.6 1.2 58
2019-06-11 18:00:00 26.2 27 Nordeste 47 Nordeste 0 1000.8 0.5 51
2019-06-11 17:00:00 28.6 18 Este 39 Nordeste 0 1000.3 -0.1 42
2019-06-11 16:00:00 27.3 20 Este 32 Este 0 1000.4 -0.4 49
2019-06-11 15:00:00 27.5 22 Este 36 Este 0 1000.3 -1.1 48
2019-06-11 14:00:00 30 12 Nordeste 27 Este 0 1000.4 -1.3 29
2019-06-11 13:00:00 28.3 11 Este 26 Este 0 1000.8 -1.5 33
2019-06-11 12:00:00 26.7 11 Nordeste 18 Nordeste 0 1001.4 -1.1 40
2019-06-11 11:00:00 25.4 9 Este 15 Este 0 1001.7 -0.8 45
2019-06-11 10:00:00 23.1 4 Sudeste 8 Sudeste 0 1002.3 0 58
2019-06-11 09:00:00 20.2 3 Sudoeste 7 Sudoeste 0 1002.5 0.3 75
2019-06-11 08:00:00 18.2 0 Calma 7 Oeste 0 1002.5 -0.2 73
2019-06-11 07:00:00 16.8 5 Sudoeste 9 Oeste 0 1002.3 -0.9 74
2019-06-11 06:00:00 17.3 4 Oeste 8 Oeste 0 1002.2 -1.7 73
2019-06-11 05:00:00 17.8 5 Oeste 10 Noroeste 0 1002.7 -1.7 76
2019-06-11 04:00:00 18.2 7 Noroeste 10 Noroeste 0 1003.2 -1.7 86
2019-06-11 03:00:00 18.7 4 Norte 9 Nordeste 0 1003.9 -1.3 89
2019-06-11 02:00:00 19.2 8 Norte 14 Nordeste 0 1004.4 -0.7 88
2019-06-11 01:00:00 19.7 10 Nordeste 19 Este 0 1004.9 0.1 87
2019-06-11 00:00:00 20.4 14 Nordeste 26 Nordeste 0 1005.2 0.9 83
2019-06-10 23:00:00 21.1 19 Nordeste 29 Nordeste 0 1005.1 1.3 76
2019-06-10 22:00:00 22.3 18 Nordeste 28 Nordeste 0 1004.8 1.3 70
2019-06-10 21:00:00 24.3 17 Nordeste 28 Nordeste 0 1004.3 0.7 58
2019-06-10 20:00:00 26.6 16 Nordeste 32 Sur 0 1003.8 0.2 46
2019-06-10 19:00:00 29.4 14 Sur 30 Sur 0 1003.5 -0.4 26
2019-06-10 18:00:00 30.7 13 Sudeste 34 Sudeste 0 1003.6 -0.9 27
2019-06-10 17:00:00 31.4 16 Sudeste 36 Sudeste 0 1003.6 -1.7 27
2019-06-10 16:00:00 31.2 17 Sur 35 Sudeste 0 1003.9 -2 33
2019-06-10 15:00:00 32.3 13 Oeste 26 Oeste 0 1004.5 -1.8 18
2019-06-10 14:00:00 30.9 6 Nordeste 26 Oeste 0 1005.3 -1.4 19
2019-06-10 13:00:00 30.4 10 Norte 27 Norte 0 1005.9 -1.2 20
2019-06-10 12:00:00 29.5 11 Noroeste 21 Oeste 0 1006.3 -0.5 21
2019-06-10 11:00:00 27.7 12 Noroeste 26 Noroeste 0 1006.7 0.4 24
2019-06-10 10:00:00 26.5 15 Noroeste 25 Noroeste 0 1007.1 1.1 26
2019-06-10 09:00:00 24.3 7 Sudoeste 13 Sudoeste 0 1006.8 1.2 32
2019-06-10 08:00:00 20.3 6 Sudoeste 11 Sudoeste 0 1006.3 0.8 42
2019-06-10 07:00:00 17.6 4 Sudoeste 9 Sudoeste 0 1006 0.4 60
2019-06-10 06:00:00 17.7 3 Oeste 12 Sur 0 1005.6 -0.4 79
2019-06-10 05:00:00 17.6 2 Sur 7 Nordeste 0 1005.5 -0.7 85
2019-06-10 04:00:00 19.3 3 Sudeste 9 Oeste 0 1005.6 -0.9 78
2019-06-10 03:00:00 20.1 5 Oeste 12 Sudoeste 0 1006 -0.5 76
2019-06-10 02:00:00 21.3 7 Sudoeste 11 Sudoeste 0 1006.2 -0.4 73
2019-06-10 01:00:00 21.8 8 Sudoeste 17 Sudoeste 0 1006.5 0.5 69
2019-06-10 00:00:00 22.6 6 Sudoeste 16 Oeste 0 1006.5 0.8 64
2019-06-09 23:00:00 24.2 8 Sudoeste 12 Sudoeste 0 1006.6 1 51
2019-06-09 22:00:00 25.1 8 Oeste 14 Sudoeste 0 1006 0.7 48
2019-06-09 21:00:00 26.3 10 Sur 24 Sur 0 1005.7 0.3 44
2019-06-09 20:00:00 27.9 14 Sur 28 Sur 0 1005.6 0.1 42
2019-06-09 19:00:00 29.5 15 Sur 29 Sur 0 1005.3 -0.9 40
2019-06-09 18:00:00 29.8 15 Sur 27 Sur 0 1005.4 -1.5 38
2019-06-09 17:00:00 31.6 10 Sur 24 Sur 0 1005.5 -2.3 31
2019-06-09 16:00:00 31 8 Sudeste 14 Este 0 1006.2 -2.2 30
2019-06-09 15:00:00 29.3 7 Sudoeste 14 Sur 0 1006.9 -1.9 34
2019-06-09 14:00:00 27.5 6 Sudoeste 12 Sudoeste 0 1007.8 -1.3 38
2019-06-09 13:00:00 26.2 3 Norte 14 Norte 0 1008.4 -0.8 40
2019-06-09 12:00:00 25.6 6 Noroeste 18 Noroeste 0 1008.8 -0.5 42
2019-06-09 11:00:00 25.5 10 Sudoeste 21 Sudoeste 0 1009.1 0 39
2019-06-09 10:00:00 23.3 7 Sudoeste 13 Sudoeste 0 1009.2 -0.1 48
2019-06-09 09:00:00 21.1 6 Oeste 14 Oeste 0 1009.3 0.2 55
2019-06-09 08:00:00 19.8 5 Oeste 8 Oeste 0 1009.1 -0.3 60
2019-06-09 07:00:00 19.3 5 Sudoeste 9 Oeste 0 1009.3 -0.7 61
2019-06-09 06:00:00 19.4 4 Oeste 10 Sudoeste 0 1009.1 -1.1 61
2019-06-09 05:00:00 19.4 7 Oeste 14 Oeste 0 1009.4 -1.9 61
2019-06-09 04:00:00 20 6 Oeste 16 Sudoeste 0 1010 -1.5 59
2019-06-09 03:00:00 20.7 6 Sudoeste 12 Oeste 0 1010.2 -1.2 62
2019-06-09 02:00:00 21.1 7 Sudoeste 12 Sudoeste 0 1011.3 -0.3 59
2019-06-09 01:00:00 21.7 5 Oeste 11 Este 0 1011.5 0.8 53
2019-06-09 00:00:00 22 5 Sudeste 14 Este 0 1011.4 1 52
2019-06-08 23:00:00 22.1 7 Sudeste 13 Sudeste 0 1011.6 0.9 52
2019-06-08 22:00:00 22.8 4 Sudeste 13 Este 0 1010.7 -0.2 50
2019-06-08 21:00:00 23.6 9 Este 24 Este 0 1010.4 -0.5 48
2019-06-08 20:00:00 23.8 12 Este 33 Este 0 1010.7 -0.6 51
2019-06-08 19:00:00 25.1 21 Este 38 Nordeste 0 1010.9 -0.8 49
2019-06-08 18:00:00 25.3 24 Nordeste 41 Nordeste 0 1010.9 -1.1 51
2019-06-08 17:00:00 26 27 Nordeste 43 Este 0 1011.3 -1.3 49
2019-06-08 16:00:00 26.2 28 Nordeste 42 Nordeste 0 1011.7 -1.3 47
2019-06-08 15:00:00 26.4 23 Este 42 Nordeste 0 1012 -1.1 48
2019-06-08 14:00:00 26.9 23 Este 40 Nordeste 0 1012.6 -0.3 44
2019-06-08 13:00:00 26.1 23 Este 42 Este 0 1013 0.2 48
2019-06-08 12:00:00 25.8 21 Este 34 Este 0 1013.1 0.5 47
2019-06-08 11:00:00 25.7 13 Este 21 Este 0 1012.9 0.7 40
2019-06-08 10:00:00 24.1 6 Este 12 Este 0 1012.8 0.9 42
2019-06-08 09:00:00 21 6 Oeste 17 Noroeste 0 1012.6 1.1 50
2019-06-08 08:00:00 18.9 3 Sudoeste 9 Noroeste 0 1012.2 0.9 59
2019-06-08 07:00:00 17.6 5 Oeste 8 Oeste 0 1011.9 0.8 67
2019-06-08 06:00:00 17.6 6 Oeste 8 Oeste 0 1011.5 0 71
2019-06-08 05:00:00 18.4 3 Sudoeste 9 Noroeste 0 1011.3 -0.1 70
2019-06-08 04:00:00 18.9 6 Noroeste 8 Oeste 0 1011.1 0 71
2019-06-08 03:00:00 19.4 4 Nordeste 11 Nordeste 0 1011.5 0.5 77
2019-06-08 02:00:00 20.1 9 Nordeste 15 Nordeste 0 1011.4 1.2 75
2019-06-08 01:00:00 20.4 8 Nordeste 21 Nordeste 0 1011.1 2.1 75
2019-06-08 00:00:00 21.1 15 Nordeste 28 Nordeste 0 1011 2.8 70
2019-06-07 23:00:00 23.2 12 Nordeste 18 Nordeste 0 1010.2 2.8 38
2019-06-07 22:00:00 24.7 2 Sudeste 9 Sur 0 1009 2.2 31
2019-06-07 21:00:00 27.4 5 Sur 17 Sur 0 1008.2 1.8 27
2019-06-07 20:00:00 28.7 9 Sur 22 Sudeste 0 1007.4 1.2 27
2019-06-07 19:00:00 29.4 11 Sudeste 29 Sudeste 0 1006.8 0.8 28
2019-06-07 18:00:00 30.1 14 Sudeste 30 Sudeste 0 1006.4 0.2 29
2019-06-07 17:00:00 30.5 14 Sur 27 Sudeste 0 1006.2 -0.4 29
2019-06-07 16:00:00 31.4 11 Sur 24 Nordeste 0 1006 -1 29
2019-06-07 15:00:00 30.3 7 Sudoeste 21 Este 0 1006.2 -0.7 27
2019-06-07 14:00:00 29.9 9 Sudeste 20 Sur 0 1006.6 -0.2 26
2019-06-07 13:00:00 28.7 4 Norte 16 Noroeste 0 1007 0.3 28
2019-06-07 12:00:00 27.1 8 Nordeste 19 Oeste 0 1006.9 0.9 32
2019-06-07 11:00:00 24.4 6 Noroeste 14 Norte 0 1006.8 1.3 40
2019-06-07 10:00:00 21.9 7 Sur 13 Sur 0 1006.7 1.7 57
2019-06-07 09:00:00 19.5 6 Sudoeste 13 Oeste 0 1006 1.5 72
2019-06-07 08:00:00 17.6 7 Oeste 12 Oeste 0 1005.5 1.4 82
2019-06-07 07:00:00 16.5 6 Sudoeste 10 Oeste 0 1005 1 87
2019-06-07 06:00:00 16.9 4 Oeste 8 Oeste 0 1004.5 0.3 88
2019-06-07 05:00:00 17 0 Calma 5 Oeste 0 1004.1 -0.1 86
2019-06-07 04:00:00 17.1 3 Norte 7 Norte 0 1004 -0.7 89
2019-06-07 03:00:00 17.6 6 Nordeste 12 Este 0 1004.2 -0.3 87
2019-06-07 02:00:00 18 7 Nordeste 14 Este 0 1004.2 0 84
2019-06-07 01:00:00 18.9 9 Este 18 Nordeste 0 1004.7 1.3 82
2019-06-07 00:00:00 19.3 13 Nordeste 20 Nordeste 0 1004.5 1.7 81
2019-06-06 23:00:00 19.9 15 Nordeste 26 Este 0 1004.2 1.9 77
2019-06-06 22:00:00 21.3 16 Nordeste 33 Nordeste 0 1003.4 0.9 68
2019-06-06 21:00:00 23 20 Nordeste 33 Nordeste 0 1002.8 -0.1 63
2019-06-06 20:00:00 25.9 14 Este 23 Este 0 1002.3 -1.1 40
2019-06-06 19:00:00 27 14 Este 26 Sudeste 0 1002.5 -1.5 41
2019-06-06 18:00:00 27 18 Este 40 Nordeste 0 1002.9 -1.4 39
2019-06-06 17:00:00 27.7 19 Este 36 Nordeste 0 1003.4 -1.4 42
2019-06-06 16:00:00 27.9 22 Este 38 Este 0 1004 -1.4 39
2019-06-06 15:00:00 28.3 22 Este 40 Nordeste 0 1004.3 -1.5 34
2019-06-06 14:00:00 28.4 21 Nordeste 33 Este 0 1004.8 -1.5 36
2019-06-06 13:00:00 27.9 10 Este 32 Este 0 1005.4 -1.3 37
2019-06-06 12:00:00 26.8 12 Este 19 Este 0 1005.8 -0.9 23
2019-06-06 11:00:00 24.7 6 Nordeste 15 Noroeste 0 1006.3 -0.2 24
2019-06-06 10:00:00 22.6 8 Noroeste 15 Noroeste 0 1006.7 0.6 27
2019-06-06 09:00:00 20.2 6 Sudoeste 9 Sudoeste 0 1006.7 0.7 30
2019-06-06 08:00:00 17.8 5 Noroeste 12 Noroeste 0 1006.5 0.7 37
2019-06-06 07:00:00 15.6 7 Noroeste 10 Noroeste 0 1006.1 0.2 40
2019-06-06 06:00:00 15.8 5 Oeste 7 Oeste 0 1006 0.1 42
2019-06-06 05:00:00 18 4 Sudoeste 14 Oeste 0 1005.8 -0.2 34
2019-06-06 04:00:00 18.4 5 Sudoeste 10 Sudoeste 0 1005.9 0 35
2019-06-06 03:00:00 18.6 6 Sudoeste 10 Noroeste 0 1005.9 0.3 35
2019-06-06 02:00:00 19.6 6 Noroeste 12 Norte 0 1006 1.1 32
2019-06-06 01:00:00 20.4 7 Noroeste 9 Noroeste 0 1005.9 1.9 29
2019-06-06 00:00:00 23 5 Sudoeste 18 Noroeste 0 1005.6 2.2 25
2019-06-05 23:00:00 23.8 7 Noroeste 17 Norte 0 1004.9 2 22
2019-06-05 22:00:00 24.9 6 Norte 15 Norte 0 1004 1.4 20
2019-06-05 21:00:00 26.7 12 Norte 24 Norte 0 1003.4 1 17
2019-06-05 20:00:00 27.7 11 Norte 24 Norte 0 1002.9 0.7 16
2019-06-05 19:00:00 28.6 12 Noroeste 29 Noroeste 0 1002.6 0.4 15
2019-06-05 18:00:00 29.1 18 Norte 32 Norte 0 1002.4 0 15
2019-06-05 17:00:00 29.8 21 Noroeste 42 Noroeste 0 1002.2 -0.2 14
2019-06-05 16:00:00 29.3 26 Noroeste 43 Noroeste 0 1002.2 0.2 14
2019-06-05 15:00:00 28.3 30 Noroeste 48 Noroeste 0 1002.4 0.8 14
2019-06-05 14:00:00 28.7 23 Noroeste 41 Noroeste 0 1002.4 1.2 14
2019-06-05 13:00:00 29 25 Noroeste 43 Noroeste 0 1002 0.8 18
2019-06-05 12:00:00 28.1 22 Noroeste 35 Noroeste 0 1001.6 0.7 26
2019-06-05 11:00:00 27.6 15 Oeste 28 Oeste 0 1001.2 0.8 28
2019-06-05 10:00:00 25.4 10 Oeste 18 Noroeste 0 1001.2 1.2 43
2019-06-05 09:00:00 21 5 Sudoeste 12 Oeste 0 1000.9 1.1 69
2019-06-05 08:00:00 18.9 5 Oeste 9 Noroeste 0 1000.4 0.6 77
2019-06-05 07:00:00 17.8 4 Sudoeste 9 Sudoeste 0 1000 0 79
2019-06-05 06:00:00 17.7 5 Oeste 9 Sudoeste 0 999.8 -0.8 84
2019-06-05 05:00:00 18.3 6 Oeste 9 Oeste 0 999.8 -1 82
2019-06-05 04:00:00 17.7 3 Noroeste 5 Noroeste 0 1000 -1.2 77
2019-06-05 03:00:00 19 3 Sur 8 Sur 0 1000.6 -0.8 72
2019-06-05 02:00:00 19.3 3 Nordeste 13 Nordeste 0 1000.8 -0.3 75
2019-06-05 01:00:00 19.7 10 Nordeste 17 Nordeste 0 1001.2 0.6 74
2019-06-05 00:00:00 20.9 9 Nordeste 21 Nordeste 0 1001.4 1.1 59
2019-06-04 23:00:00 22.3 12 Nordeste 21 Nordeste 0 1001.1 0.7 50
2019-06-04 22:00:00 24.2 7 Este 17 Sudeste 0 1000.6 0.4 35
2019-06-04 21:00:00 27.2 10 Sudeste 19 Sudeste 0 1000.3 -0.3 26
2019-06-04 20:00:00 30 10 Sudeste 23 Sudeste 0 1000.4 -0.7 22
2019-06-04 19:00:00 31.7 12 Sudeste 26 Sur 0 1000.2 -1.7 19
2019-06-04 18:00:00 33.1 14 Sur 27 Sur 0 1000.6 -2.2 23
2019-06-04 17:00:00 33.3 14 Sudeste 26 Sur 0 1001.1 -2.5 25
2019-06-04 16:00:00 32.7 13 Sudeste 25 Sudeste 0 1001.9 -2.8 23
2019-06-04 15:00:00 32.3 12 Sudeste 30 Este 0 1002.8 -2.7 25
2019-06-04 14:00:00 31.3 10 Este 19 Este 0 1003.6 -2.3 30
2019-06-04 13:00:00 28.9 7 Este 15 Este 0 1004.7 -1.6 36
2019-06-04 12:00:00 27.2 6 Sudeste 13 Este 0 1005.5 -1 41
2019-06-04 11:00:00 24.8 3 Sur 9 Este 0 1005.9 -0.3 49
2019-06-04 10:00:00 22.1 3 Oeste 9 Sudoeste 0 1006.3 0.3 61
2019-06-04 09:00:00 20.1 4 Sur 8 Sur 0 1006.5 0.8 66
2019-06-04 08:00:00 18 5 Noroeste 10 Oeste 0 1006.2 0.3 70
2019-06-04 07:00:00 16.4 5 Noroeste 7 Noroeste 0 1006 -0.3 78
2019-06-04 06:00:00 16.3 3 Oeste 5 Oeste 0 1005.7 -1.3 83
2019-06-04 05:00:00 17.2 2 Sudoeste 6 Noroeste 0 1005.9 -1.8 82
2019-06-04 04:00:00 17.8 0 Calma 5 Este 0 1006.3 -1.9 84
2019-06-04 03:00:00 18.3 3 Este 6 Este 0 1007 -1.4 86
2019-06-04 02:00:00 19.2 4 Este 10 Este 0 1007.7 -0.7 83
2019-06-04 01:00:00 19.6 6 Nordeste 14 Nordeste 0 1008.2 0.3 75
2019-06-04 00:00:00 20.6 10 Nordeste 18 Nordeste 0 1008.4 0.9 64
2019-06-03 23:00:00 22.1 10 Nordeste 21 Nordeste 0 1008.4 1.2 53
2019-06-03 22:00:00 24.1 15 Nordeste 22 Nordeste 0 1007.9 0.5 41
2019-06-03 21:00:00 26.2 16 Nordeste 23 Nordeste 0 1007.5 0 33
2019-06-03 20:00:00 29.7 7 Este 16 Sur 0 1007.2 -0.7 31
2019-06-03 19:00:00 30.8 8 Sudeste 19 Sudeste 0 1007.4 -1 30
2019-06-03 18:00:00 31.6 12 Este 22 Este 0 1007.5 -1.6 28
2019-06-03 17:00:00 31.3 12 Este 26 Este 0 1007.9 -2 26
2019-06-03 16:00:00 32.1 10 Sudeste 22 Este 0 1008.4 -2.2 26
2019-06-03 15:00:00 31.8 9 Este 21 Este 0 1009.1 -2 23
2019-06-03 14:00:00 30.3 12 Este 23 Este 0 1009.9 -1.4 23
2019-06-03 13:00:00 29 8 Este 18 Este 0 1010.6 -1 28
2019-06-03 12:00:00 27.1 6 Sudeste 17 Este 0 1011.1 -0.1 30
2019-06-03 11:00:00 25.4 5 Este 10 Sur 0 1011.3 0.3 31
2019-06-03 10:00:00 22.5 5 Norte 15 Noroeste 0 1011.6 0.7 39
2019-06-03 09:00:00 19.8 8 Noroeste 15 Noroeste 0 1011.2 0.6 52
2019-06-03 08:00:00 17.3 6 Noroeste 10 Noroeste 0 1011 0.4 61
2019-06-03 07:00:00 15.3 4 Sur 10 Noroeste 0 1010.9 0 68
2019-06-03 06:00:00 15.8 4 Oeste 10 Oeste 0 1010.6 -0.7 69
2019-06-03 05:00:00 16.4 4 Oeste 9 Oeste 0 1010.6 -1.3 70
2019-06-03 04:00:00 16.4 4 Sur 6 Noroeste 0 1010.9 -1.2 64
2019-06-03 03:00:00 16.5 3 Norte 4 Sur 0 1011.3 -0.8 71
2019-06-03 02:00:00 18.1 3 Este 9 Nordeste 0 1011.9 0 70
2019-06-03 01:00:00 18.9 5 Este 13 Este 0 1012.1 1 63
2019-06-03 00:00:00 19.9 8 Nordeste 15 Nordeste 0 1012.1 1.4 61
2019-06-02 23:00:00 21 8 Este 19 Nordeste 0 1011.9 1.6 50
2019-06-02 22:00:00 22.5 13 Nordeste 21 Este 0 1011.1 1 43
2019-06-02 21:00:00 24.8 14 Nordeste 24 Nordeste 0 1010.7 0.4 29
2019-06-02 20:00:00 27.2 16 Este 26 Este 0 1010.3 -0.1 27
2019-06-02 19:00:00 28.7 12 Sudeste 27 Este 0 1010.1 -0.7 23
2019-06-02 18:00:00 29.8 16 Este 29 Este 0 1010.3 -0.7 20
2019-06-02 17:00:00 30.3 17 Nordeste 31 Este 0 1010.4 -1.4 19
2019-06-02 16:00:00 30.5 16 Este 25 Este 0 1010.8 -1.8 18
2019-06-02 15:00:00 30.1 10 Nordeste 24 Este 0 1011 -1.9 19
2019-06-02 14:00:00 29.5 8 Este 22 Este 0 1011.8 -1.4 19
2019-06-02 13:00:00 28 10 Este 19 Este 0 1012.6 -0.8 20
2019-06-02 12:00:00 27.1 7 Este 15 Nordeste 0 1012.9 -0.5 20
2019-06-02 11:00:00 24.7 4 Este 10 Nordeste 0 1013.2 0 27
2019-06-02 10:00:00 21.2 5 Oeste 13 Oeste 0 1013.4 0.3 36
2019-06-02 09:00:00 18.5 4 Sudoeste 9 Oeste 0 1013.4 0.4 44
2019-06-02 08:00:00 16.4 5 Oeste 11 Oeste 0 1013.2 0.2 50
2019-06-02 07:00:00 14.7 7 Oeste 12 Oeste 0 1013.1 -0.3 52
2019-06-02 06:00:00 15.5 7 Sudoeste 12 Oeste 0 1013 -0.7 50
2019-06-02 05:00:00 15.9 7 Sudoeste 13 Sudoeste 0 1013 -1.1 50
2019-06-02 04:00:00 16.1 0 Calma 10 Noroeste 0 1013.4 -0.7 51
2019-06-02 03:00:00 16.5 3 Noroeste 8 Noroeste 0 1013.7 -0.5 52
2019-06-02 02:00:00 17.1 5 Noroeste 8 Noroeste 0 1014.1 0.3 54
2019-06-02 01:00:00 17.9 7 Nordeste 12 Nordeste 0 1014.1 0.8 51
2019-06-02 00:00:00 18.9 8 Nordeste 10 Nordeste 0 1014.2 1.2 48
2019-06-01 23:00:00 19.9 6 Nordeste 13 Este 0 1013.8 1.2 44
2019-06-01 22:00:00 21.4 8 Nordeste 19 Este 0 1013.3 1 36
2019-06-01 21:00:00 23.7 14 Este 26 Nordeste 0 1013 0.4 28
2019-06-01 20:00:00 25.6 14 Este 28 Nordeste 0 1012.6 -0.2 24
2019-06-01 19:00:00 27.1 17 Nordeste 28 Este 0 1012.3 -1 21
2019-06-01 18:00:00 27.9 17 Este 33 Nordeste 0 1012.6 -1.2 20
2019-06-01 17:00:00 28.4 18 Nordeste 29 Este 0 1012.8 -1.6 20
2019-06-01 16:00:00 28.4 15 Este 29 Este 0 1013.3 -1.7 21
2019-06-01 15:00:00 28.3 14 Este 30 Este 0 1013.8 -1.6 22
2019-06-01 14:00:00 27.7 10 Este 25 Este 0 1014.4 -1.1 23
2019-06-01 13:00:00 27 14 Nordeste 20 Este 0 1015 -0.7 24
2019-06-01 12:00:00 25.8 9 Este 16 Este 0 1015.4 -0.4 26
2019-06-01 11:00:00 23.3 4 Sudoeste 13 Oeste 0 1015.5 -0.1 37
2019-06-01 10:00:00 20.9 4 Oeste 10 Oeste 0 1015.7 0.4 48
2019-06-01 09:00:00 18.2 5 Noroeste 9 Noroeste 0 1015.8 0.8 56
2019-06-01 08:00:00 16.2 4 Oeste 12 Oeste 0 1015.6 0.6 58
2019-06-01 07:00:00 14.5 6 Oeste 11 Oeste 0 1015.3 0.1 65
2019-06-01 06:00:00 14.6 4 Oeste 8 Oeste 0 1015 -0.4 69
2019-06-01 05:00:00 15.1 3 Oeste 12 Noroeste 0 1015 -0.9 69
2019-06-01 04:00:00 15.6 7 Norte 13 Norte 0 1015.2 -1.1 67
2019-06-01 03:00:00 15.9 0 Calma 5 Noroeste 0 1015.4 -0.8 72
2019-06-01 02:00:00 16.9 3 Sur 4 Norte 0 1015.9 -0.2 66
2019-06-01 01:00:00 17.3 5 Este 7 Nordeste 0 1016.3 0.8 66
2019-06-01 00:00:00 18.5 4 Nordeste 8 Este 0 1016.2 1.1 60
2019-05-31 23:00:00 19.8 5 Este 13 Nordeste 0 1016.1 1.2 52
2019-05-31 22:00:00 20.6 8 Este 18 Este 0 1015.5 0.6 45
2019-05-31 21:00:00 22.2 13 Este 25 Nordeste 0 1015.1 0 42
2019-05-31 20:00:00 23.8 15 Este 30 Este 0 1014.9 -0.5 39
2019-05-31 19:00:00 24.8 18 Este 31 Nordeste 0 1014.9 -0.8 37
2019-05-31 18:00:00 25.8 17 Este 31 Este 0 1015.1 -0.9 33
2019-05-31 17:00:00 26.4 19 Este 34 Nordeste 0 1015.4 -1 33
2019-05-31 16:00:00 27.1 21 Nordeste 33 Nordeste 0 1015.7 -1.2 32
2019-05-31 15:00:00 27 19 Este 31 Este 0 1016 -1.3 34
2019-05-31 14:00:00 26.7 17 Nordeste 30 Nordeste 0 1016.4 -1 32
2019-05-31 13:00:00 26.3 17 Nordeste 26 Nordeste 0 1016.9 -0.7 31
2019-05-31 12:00:00 25 12 Este 22 Sudeste 0 1017.3 0.1 34
2019-05-31 11:00:00 23.1 5 Sudeste 15 Este 0 1017.4 0.1 42
2019-05-31 10:00:00 20.3 5 Noroeste 13 Oeste 0 1017.6 0.7 56
2019-05-31 09:00:00 17.8 5 Sudoeste 9 Oeste 0 1017.2 0.7 65
2019-05-31 08:00:00 15.8 3 Oeste 8 Oeste 0 1017.3 0.5 75
2019-05-31 07:00:00 14.4 5 Oeste 8 Oeste 0 1016.9 -0.2 79
2019-05-31 06:00:00 14.7 5 Oeste 10 Oeste 0 1016.5 -1.2 79
2019-05-31 05:00:00 14.7 2 Sudoeste 8 Noroeste 0 1016.8 -1.3 81
2019-05-31 04:00:00 15.1 5 Noroeste 8 Noroeste 0 1017.1 -1.3 81
2019-05-31 03:00:00 16 0 Calma 8 Oeste 0 1017.7 -0.7 76
2019-05-31 02:00:00 16.6 3 Nordeste 9 Nordeste 0 1018.1 -0.1 75
2019-05-31 01:00:00 16.9 6 Nordeste 10 Este 0 1018.4 0.9 74
2019-05-31 00:00:00 17.8 8 Nordeste 14 Nordeste 0 1018.4 1.6 70
2019-05-30 23:00:00 18.6 11 Nordeste 18 Nordeste 0 1018.2 1.8 66
2019-05-30 22:00:00 20.1 11 Este 19 Este 0 1017.5 1.3 55
2019-05-30 21:00:00 21.7 9 Sudeste 21 Este 0 1016.8 0.5 47
2019-05-30 20:00:00 23.3 12 Este 24 Sudeste 0 1016.4 -0.2 41
2019-05-30 19:00:00 24.9 12 Este 25 Este 0 1016.2 -0.5 38
2019-05-30 18:00:00 26.1 12 Este 23 Este 0 1016.3 -0.6 34
2019-05-30 17:00:00 26.3 11 Este 30 Este 0 1016.6 -0.7 32
2019-05-30 16:00:00 26.6 13 Sudeste 27 Este 0 1016.7 -1.2 33
2019-05-30 15:00:00 26.3 10 Este 27 Este 0 1016.9 -1.4 34
2019-05-30 14:00:00 25.5 12 Este 21 Este 0 1017.3 -1.1 41
2019-05-30 13:00:00 24.2 7 Este 21 Nordeste 0 1017.9 -0.4 44
2019-05-30 12:00:00 23 6 Norte 18 Norte 0 1018.3 0.1 48
2019-05-30 11:00:00 21.9 7 Este 13 Este 0 1018.4 0.6 50
2019-05-30 10:00:00 19.7 3 Sudoeste 10 Noroeste 0 1018.3 0.9 55
2019-05-30 09:00:00 17.7 3 Noroeste 6 Noroeste 0 1018.2 1.2 60
2019-05-30 08:00:00 15.4 4 Sudoeste 6 Oeste 0 1017.8 0.9 67
2019-05-30 07:00:00 14.6 5 Oeste 10 Oeste 0 1017.4 0.5 71
2019-05-30 06:00:00 15.2 4 Oeste 9 Oeste 0 1017 0 68
2019-05-30 05:00:00 15.8 5 Oeste 9 Oeste 0 1016.9 -0.3 69
2019-05-30 04:00:00 15.6 6 Noroeste 12 Noroeste 0 1016.9 -0.2 69
2019-05-30 03:00:00 16.8 2 Noroeste 5 Noroeste 0 1017 0.2 71
2019-05-30 02:00:00 16.7 3 Norte 4 Noroeste 0 1017.2 0.9 70
2019-05-30 01:00:00 16.6 4 Este 9 Nordeste 0 1017.1 1.9 70
2019-05-30 00:00:00 17.2 5 Nordeste 11 Nordeste 0 1016.8 2.5 64
2019-05-29 23:00:00 18 8 Este 16 Este 0 1016.3 2.9 52
2019-05-29 22:00:00 19.2 10 Este 26 Este 0 1015.2 2.2 42
2019-05-29 21:00:00 20.5 17 Este 26 Este 0 1014.3 1.4 44
2019-05-29 20:00:00 22.2 14 Este 28 Nordeste 0 1013.4 0.5 40
2019-05-29 19:00:00 22.7 16 Este 31 Este 0 1013 0.2 38
2019-05-29 18:00:00 23.1 18 Este 33 Este 0 1012.9 0.2 38
2019-05-29 17:00:00 23.1 22 Este 36 Este 0 1012.9 0.2 41
2019-05-29 16:00:00 23.9 22 Este 37 Este 0 1012.8 -0.4 41
2019-05-29 15:00:00 24.9 22 Nordeste 34 Nordeste 0 1012.7 -0.7 40
2019-05-29 14:00:00 24.4 10 Nordeste 24 Este 0 1012.7 -0.8 43
2019-05-29 13:00:00 23.8 8 Este 19 Este 0 1013.2 -0.4 44
2019-05-29 12:00:00 23.4 7 Sudeste 18 Norte 0 1013.4 0.2 44
2019-05-29 11:00:00 22.1 8 Este 21 Este 0 1013.5 0.8 46
2019-05-29 10:00:00 21.3 10 Este 21 Este 0 1013.6 1.7 54
2019-05-29 09:00:00 19.4 11 Este 17 Este 0 1013.2 1.9 65
2019-05-29 08:00:00 17.9 2 Este 7 Oeste 0 1012.7 1.6 84
2019-05-29 07:00:00 16.2 4 Oeste 8 Oeste 0 1011.9 1 90
2019-05-29 06:00:00 16.6 3 Sur 6 Sur 0 1011.3 0.6 89
2019-05-29 05:00:00 16.7 3 Este 8 Oeste 0 1011.1 0.5 89
2019-05-29 04:00:00 17.7 5 Oeste 8 Oeste 0 1010.9 0.6 86
2019-05-29 03:00:00 17.9 4 Oeste 5 Oeste 0 1010.7 0.6 85
2019-05-29 02:00:00 18 2 Noroeste 8 Norte 0 1010.6 1.1 84
2019-05-29 01:00:00 18.4 6 Este 17 Nordeste 0 1010.3 1.9 83
2019-05-29 00:00:00 18.8 12 Nordeste 20 Nordeste 0 1010.1 2.9 83
2019-05-28 23:00:00 19.5 13 Nordeste 23 Nordeste 0 1009.5 3.5 80
2019-05-28 22:00:00 20.3 12 Este 27 Este 0 1008.4 3.1 75
2019-05-28 21:00:00 21.6 16 Este 34 Este 0 1007.2 2.1 70
2019-05-28 20:00:00 23 19 Este 36 Nordeste 0 1006 0.9 64
2019-05-28 19:00:00 24.4 22 Nordeste 33 Nordeste 0 1005.3 0.3 58
2019-05-28 18:00:00 25.5 23 Nordeste 37 Este 0 1005.1 -0.2 54
2019-05-28 17:00:00 26.8 21 Nordeste 36 Nordeste 0 1005.1 -0.4 50
2019-05-28 16:00:00 27.7 16 Nordeste 30 Nordeste 0 1005 -0.9 45
2019-05-28 15:00:00 27.3 17 Este 32 Nordeste 0 1005.3 -0.7 47
2019-05-28 14:00:00 27.6 15 Nordeste 26 Nordeste 0 1005.5 -0.4 45
2019-05-28 13:00:00 26.8 12 Nordeste 23 Nordeste 0 1005.9 -0.2 44
2019-05-28 12:00:00 25.7 12 Este 21 Este 0 1006 0 47
2019-05-28 11:00:00 24.8 8 Este 20 Nordeste 0 1005.9 0.3 54
2019-05-28 10:00:00 22.5 5 Este 13 Nordeste 0 1006.1 1 65
2019-05-28 09:00:00 20.3 6 Norte 14 Noroeste 0 1006 1.2 77
2019-05-28 08:00:00 19.6 5 Noroeste 9 Noroeste 0 1005.6 1.1 84
2019-05-28 07:00:00 19.1 4 Noroeste 10 Norte 0 1005.1 0.6 86
2019-05-28 06:00:00 19.2 6 Noroeste 10 Nordeste 0 1004.8 0.7 87
2019-05-28 05:00:00 19.1 6 Norte 12 Nordeste 0 1004.5 0.3 90
2019-05-28 04:00:00 19 9 Nordeste 18 Nordeste 0 1004.5 0.3 92
2019-05-28 03:00:00 18.8 11 Nordeste 21 Nordeste 0 1004.1 0 92
2019-05-28 02:00:00 19.2 10 Nordeste 22 Nordeste 0 1004.2 0.4 87
2019-05-28 01:00:00 19.7 12 Nordeste 22 Este 0 1004.2 1.1 83
2019-05-28 00:00:00 20.6 13 Nordeste 25 Nordeste 0 1004.1 1.5 75